sensor_id;sensor_type;location;lat;lon;timestamp;P1;durP1;ratioP1;P2;durP2;ratioP2
77953;SDS011;67151;52.544;6.034;2023-07-02T00:00:08;2.4;;;1.3;;
77953;SDS011;67151;52.544;6.034;2023-07-02T00:00:23;2.5;;;1.3;;
77953;SDS011;67151;52.544;6.034;2023-07-02T00:00:38;2.7;;;1.5;;
77953;SDS011;67151;52.544;6.034;2023-07-02T00:00:53;2.3;;;1.3;;
77953;SDS011;67151;52.544;6.034;2023-07-02T00:01:08;2.7;;;1.3;;
77953;SDS011;67151;52.544;6.034;2023-07-02T00:01:23;2.5;;;1.4;;
77953;SDS011;67151;52.544;6.034;2023-07-02T00:01:38;2;;;1.4;;
77953;SDS011;67151;52.544;6.034;2023-07-02T00:01:53;3.1;;;1.4;;
77953;SDS011;67151;52.544;6.034;2023-07-02T00:02:08;3.3;;;1.4;;
77953;SDS011;67151;52.544;6.034;2023-07-02T00:02:23;2.5;;;1.4;;
77953;SDS011;67151;52.544;6.034;2023-07-02T00:02:38;2.6;;;1.5;;
77953;SDS011;67151;52.544;6.034;2023-07-02T00:02:53;2.8;;;1.5;;
77953;SDS011;67151;52.544;6.034;2023-07-02T00:03:08;2.6;;;1.4;;
77953;SDS011;67151;52.544;6.034;2023-07-02T00:03:23;2.3;;;1.6;;
77953;SDS011;67151;52.544;6.034;2023-07-02T00:03:38;2.6;;;1.5;;
77953;SDS011;67151;52.544;6.034;2023-07-02T00:03:53;3;;;1.5;;
77953;SDS011;67151;52.544;6.034;2023-07-02T00:04:08;2.9;;;1.4;;
77953;SDS011;67151;52.544;6.034;2023-07-02T00:04:23;2.9;;;1.4;;
77953;SDS011;67151;52.544;6.034;2023-07-02T00:04:38;2.9;;;1.4;;
77953;SDS011;67151;52.544;6.034;2023-07-02T00:04:53;2.5;;;1.3;;
77953;SDS011;67151;52.544;6.034;2023-07-02T00:05:08;2.8;;;1.6;;
77953;SDS011;67151;52.544;6.034;2023-07-02T00:05:23;2.7;;;1.6;;
77953;SDS011;67151;52.544;6.034;2023-07-02T00:05:38;2.2;;;1.4;;
77953;SDS011;67151;52.544;6.034;2023-07-02T00:05:53;2.4;;;1.5;;
77953;SDS011;67151;52.544;6.034;2023-07-02T00:06:08;2.1;;;1.4;;
77953;SDS011;67151;52.544;6.034;2023-07-02T00:06:23;2.2;;;1.3;;
77953;SDS011;67151;52.544;6.034;2023-07-02T00:06:38;2.5;;;1.4;;
77953;SDS011;67151;52.544;6.034;2023-07-02T00:06:53;2.5;;;1.5;;
77953;SDS011;67151;52.544;6.034;2023-07-02T00:07:08;2.4;;;1.3;;
77953;SDS011;67151;52.544;6.034;2023-07-02T00:07:23;2.1;;;1.3;;
77953;SDS011;67151;52.544;6.034;2023-07-02T00:07:38;2.2;;;1.3;;
77953;SDS011;67151;52.544;6.034;2023-07-02T00:07:53;2.5;;;1.3;;
77953;SDS011;67151;52.544;6.034;2023-07-02T00:08:08;2.6;;;1.4;;
77953;SDS011;67151;52.544;6.034;2023-07-02T00:08:23;2.8;;;1.5;;
77953;SDS011;67151;52.544;6.034;2023-07-02T00:08:38;2.8;;;1.5;;
77953;SDS011;67151;52.544;6.034;2023-07-02T00:08:53;2.6;;;1.5;;
77953;SDS011;67151;52.544;6.034;2023-07-02T00:09:08;2.6;;;1.4;;
77953;SDS011;67151;52.544;6.034;2023-07-02T00:09:23;2.4;;;1.4;;
77953;SDS011;67151;52.544;6.034;2023-07-02T00:09:38;2.4;;;1.4;;
77953;SDS011;67151;52.544;6.034;2023-07-02T00:09:53;2.5;;;1.4;;
77953;SDS011;67151;52.544;6.034;2023-07-02T00:10:08;2.6;;;1.4;;
77953;SDS011;67151;52.544;6.034;2023-07-02T00:10:23;3;;;1.5;;
77953;SDS011;67151;52.544;6.034;2023-07-02T00:10:38;2.9;;;1.5;;
77953;SDS011;67151;52.544;6.034;2023-07-02T00:10:53;2.4;;;1.3;;
77953;SDS011;67151;52.544;6.034;2023-07-02T00:11:08;2.9;;;1.4;;
77953;SDS011;67151;52.544;6.034;2023-07-02T00:11:23;3;;;1.5;;
77953;SDS011;67151;52.544;6.034;2023-07-02T00:11:38;2.1;;;1.3;;
77953;SDS011;67151;52.544;6.034;2023-07-02T00:11:53;2.4;;;1.4;;
77953;SDS011;67151;52.544;6.034;2023-07-02T00:12:08;2.6;;;1.5;;
77953;SDS011;67151;52.544;6.034;2023-07-02T00:12:23;1.8;;;1.3;;
77953;SDS011;67151;52.544;6.034;2023-07-02T00:12:38;1.9;;;1.3;;
77953;SDS011;67151;52.544;6.034;2023-07-02T00:12:53;2.2;;;1.4;;
77953;SDS011;67151;52.544;6.034;2023-07-02T00:13:08;2.3;;;1.3;;
77953;SDS011;67151;52.544;6.034;2023-07-02T00:13:23;3.3;;;1.5;;
77953;SDS011;67151;52.544;6.034;2023-07-02T00:13:38;3.2;;;1.5;;
77953;SDS011;67151;52.544;6.034;2023-07-02T00:13:53;2.5;;;1.4;;
77953;SDS011;67151;52.544;6.034;2023-07-02T00:14:09;2.7;;;1.4;;
77953;SDS011;67151;52.544;6.034;2023-07-02T00:14:23;2.5;;;1.3;;
77953;SDS011;67151;52.544;6.034;2023-07-02T00:14:38;1.9;;;1.3;;
77953;SDS011;67151;52.544;6.034;2023-07-02T00:14:53;2.1;;;1.2;;
77953;SDS011;67151;52.544;6.034;2023-07-02T00:15:08;2.5;;;1.4;;
77953;SDS011;67151;52.544;6.034;2023-07-02T00:15:23;2.5;;;1.5;;
77953;SDS011;67151;52.544;6.034;2023-07-02T00:15:38;2;;;1.2;;
77953;SDS011;67151;52.544;6.034;2023-07-02T00:15:53;2.3;;;1.3;;
77953;SDS011;67151;52.544;6.034;2023-07-02T00:16:08;3.6;;;1.4;;
77953;SDS011;67151;52.544;6.034;2023-07-02T00:16:23;3.3;;;1.3;;
77953;SDS011;67151;52.544;6.034;2023-07-02T00:16:39;2.1;;;1.2;;
77953;SDS011;67151;52.544;6.034;2023-07-02T00:16:53;2.1;;;1.3;;
77953;SDS011;67151;52.544;6.034;2023-07-02T00:17:08;2.1;;;1.3;;
77953;SDS011;67151;52.544;6.034;2023-07-02T00:17:23;2;;;1.3;;
77953;SDS011;67151;52.544;6.034;2023-07-02T00:17:38;2.5;;;1.4;;
77953;SDS011;67151;52.544;6.034;2023-07-02T00:17:53;2.6;;;1.5;;
77953;SDS011;67151;52.544;6.034;2023-07-02T00:18:08;2.2;;;1.3;;
77953;SDS011;67151;52.544;6.034;2023-07-02T00:18:23;2.1;;;1.2;;
77953;SDS011;67151;52.544;6.034;2023-07-02T00:18:38;1.9;;;1.2;;
77953;SDS011;67151;52.544;6.034;2023-07-02T00:18:53;2.1;;;1.3;;
77953;SDS011;67151;52.544;6.034;2023-07-02T00:19:08;2.1;;;1.4;;
77953;SDS011;67151;52.544;6.034;2023-07-02T00:19:23;2.3;;;1.4;;
77953;SDS011;67151;52.544;6.034;2023-07-02T00:19:38;2.8;;;1.5;;
77953;SDS011;67151;52.544;6.034;2023-07-02T00:19:53;2.6;;;1.6;;
77953;SDS011;67151;52.544;6.034;2023-07-02T00:20:08;2.3;;;1.5;;
77953;SDS011;67151;52.544;6.034;2023-07-02T00:20:23;2;;;1.4;;
77953;SDS011;67151;52.544;6.034;2023-07-02T00:20:38;2;;;1.3;;
77953;SDS011;67151;52.544;6.034;2023-07-02T00:20:53;2.6;;;1.3;;
77953;SDS011;67151;52.544;6.034;2023-07-02T00:21:08;2.7;;;1.3;;
77953;SDS011;67151;52.544;6.034;2023-07-02T00:21:23;2.7;;;1.3;;
77953;SDS011;67151;52.544;6.034;2023-07-02T00:21:38;2.8;;;1.3;;
77953;SDS011;67151;52.544;6.034;2023-07-02T00:21:53;2.5;;;1.3;;
77953;SDS011;67151;52.544;6.034;2023-07-02T00:22:08;2.8;;;1.5;;
77953;SDS011;67151;52.544;6.034;2023-07-02T00:22:23;3;;;1.4;;
77953;SDS011;67151;52.544;6.034;2023-07-02T00:22:38;2.9;;;1.2;;
77953;SDS011;67151;52.544;6.034;2023-07-02T00:22:53;2.4;;;1.2;;
77953;SDS011;67151;52.544;6.034;2023-07-02T00:23:08;2.2;;;1.3;;
77953;SDS011;67151;52.544;6.034;2023-07-02T00:23:23;2.9;;;1.4;;
77953;SDS011;67151;52.544;6.034;2023-07-02T00:23:38;2.7;;;1.4;;
77953;SDS011;67151;52.544;6.034;2023-07-02T00:23:53;1.8;;;1.2;;
77953;SDS011;67151;52.544;6.034;2023-07-02T00:24:08;1.8;;;1.2;;
77953;SDS011;67151;52.544;6.034;2023-07-02T00:24:23;2.6;;;1.3;;
77953;SDS011;67151;52.544;6.034;2023-07-02T00:24:38;2.4;;;1.4;;
77953;SDS011;67151;52.544;6.034;2023-07-02T00:24:53;1.9;;;1.3;;
77953;SDS011;67151;52.544;6.034;2023-07-02T00:25:08;2.3;;;1.4;;
77953;SDS011;67151;52.544;6.034;2023-07-02T00:25:23;2.5;;;1.4;;
77953;SDS011;67151;52.544;6.034;2023-07-02T00:25:38;2.4;;;1.3;;
77953;SDS011;67151;52.544;6.034;2023-07-02T00:25:53;2.3;;;1.3;;
77953;SDS011;67151;52.544;6.034;2023-07-02T00:26:08;2.2;;;1.3;;
77953;SDS011;67151;52.544;6.034;2023-07-02T00:26:23;2.5;;;1.4;;
77953;SDS011;67151;52.544;6.034;2023-07-02T00:26:38;2.2;;;1.4;;
77953;SDS011;67151;52.544;6.034;2023-07-02T00:26:53;2.2;;;1.3;;
77953;SDS011;67151;52.544;6.034;2023-07-02T00:27:08;2;;;1.3;;
77953;SDS011;67151;52.544;6.034;2023-07-02T00:27:23;1.9;;;1.2;;
77953;SDS011;67151;52.544;6.034;2023-07-02T00:27:38;2.4;;;1.3;;
77953;SDS011;67151;52.544;6.034;2023-07-02T00:27:53;2.2;;;1.1;;
77953;SDS011;67151;52.544;6.034;2023-07-02T00:28:08;2.2;;;1.1;;
77953;SDS011;67151;52.544;6.034;2023-07-02T00:28:23;2.4;;;1.3;;
77953;SDS011;67151;52.544;6.034;2023-07-02T00:28:38;2.1;;;1.3;;
77953;SDS011;67151;52.544;6.034;2023-07-02T00:28:53;2.1;;;1.4;;
77953;SDS011;67151;52.544;6.034;2023-07-02T00:29:08;2.3;;;1.4;;
77953;SDS011;67151;52.544;6.034;2023-07-02T00:29:23;2.2;;;1.3;;
77953;SDS011;67151;52.544;6.034;2023-07-02T00:29:38;1.9;;;1.2;;
77953;SDS011;67151;52.544;6.034;2023-07-02T00:29:53;2.1;;;1.3;;
77953;SDS011;67151;52.544;6.034;2023-07-02T00:30:08;2.2;;;1.3;;
77953;SDS011;67151;52.544;6.034;2023-07-02T00:30:23;2;;;1.3;;
77953;SDS011;67151;52.544;6.034;2023-07-02T00:30:38;3;;;1.3;;
77953;SDS011;67151;52.544;6.034;2023-07-02T00:30:53;3.2;;;1.3;;
77953;SDS011;67151;52.544;6.034;2023-07-02T00:31:08;2.9;;;1.3;;
77953;SDS011;67151;52.544;6.034;2023-07-02T00:31:23;3.1;;;1.4;;
77953;SDS011;67151;52.544;6.034;2023-07-02T00:31:38;2.5;;;1.3;;
77953;SDS011;67151;52.544;6.034;2023-07-02T00:31:53;2;;;1.3;;
77953;SDS011;67151;52.544;6.034;2023-07-02T00:32:08;2.3;;;1.4;;
77953;SDS011;67151;52.544;6.034;2023-07-02T00:32:23;2.8;;;1.4;;
77953;SDS011;67151;52.544;6.034;2023-07-02T00:32:38;2.8;;;1.4;;
77953;SDS011;67151;52.544;6.034;2023-07-02T00:32:53;2.4;;;1.3;;
77953;SDS011;67151;52.544;6.034;2023-07-02T00:33:08;2.1;;;1.2;;
77953;SDS011;67151;52.544;6.034;2023-07-02T00:33:23;2.6;;;1.2;;
77953;SDS011;67151;52.544;6.034;2023-07-02T00:33:38;2.9;;;1.4;;
77953;SDS011;67151;52.544;6.034;2023-07-02T00:33:53;2.3;;;1.4;;
77953;SDS011;67151;52.544;6.034;2023-07-02T00:34:08;2.1;;;1.3;;
77953;SDS011;67151;52.544;6.034;2023-07-02T00:34:23;2.1;;;1.3;;
77953;SDS011;67151;52.544;6.034;2023-07-02T00:34:38;1.9;;;1.3;;
77953;SDS011;67151;52.544;6.034;2023-07-02T00:34:53;2.6;;;1.2;;
77953;SDS011;67151;52.544;6.034;2023-07-02T00:35:08;3.1;;;1.4;;
77953;SDS011;67151;52.544;6.034;2023-07-02T00:35:23;2.6;;;1.3;;
77953;SDS011;67151;52.544;6.034;2023-07-02T00:35:38;2.8;;;1.3;;
77953;SDS011;67151;52.544;6.034;2023-07-02T00:35:53;2.4;;;1.4;;
77953;SDS011;67151;52.544;6.034;2023-07-02T00:36:08;2.1;;;1.3;;
77953;SDS011;67151;52.544;6.034;2023-07-02T00:36:23;3;;;1.4;;
77953;SDS011;67151;52.544;6.034;2023-07-02T00:36:38;3;;;1.3;;
77953;SDS011;67151;52.544;6.034;2023-07-02T00:36:53;2;;;1.2;;
77953;SDS011;67151;52.544;6.034;2023-07-02T00:37:08;2;;;1.2;;
77953;SDS011;67151;52.544;6.034;2023-07-02T00:37:23;2.5;;;1.4;;
77953;SDS011;67151;52.544;6.034;2023-07-02T00:37:38;2.2;;;1.4;;
77953;SDS011;67151;52.544;6.034;2023-07-02T00:37:53;2.1;;;1.1;;
77953;SDS011;67151;52.544;6.034;2023-07-02T00:38:08;2.6;;;1.1;;
77953;SDS011;67151;52.544;6.034;2023-07-02T00:38:23;2.7;;;1.3;;
77953;SDS011;67151;52.544;6.034;2023-07-02T00:38:38;3;;;1.3;;
77953;SDS011;67151;52.544;6.034;2023-07-02T00:38:53;3.1;;;1.3;;
77953;SDS011;67151;52.544;6.034;2023-07-02T00:39:08;2.9;;;1.3;;
77953;SDS011;67151;52.544;6.034;2023-07-02T00:39:23;2.8;;;1.4;;
77953;SDS011;67151;52.544;6.034;2023-07-02T00:39:38;2.3;;;1.3;;
77953;SDS011;67151;52.544;6.034;2023-07-02T00:39:53;2;;;1.2;;
77953;SDS011;67151;52.544;6.034;2023-07-02T00:40:08;2.1;;;1.4;;
77953;SDS011;67151;52.544;6.034;2023-07-02T00:40:23;2;;;1.5;;
77953;SDS011;67151;52.544;6.034;2023-07-02T00:40:38;2.3;;;1.4;;
77953;SDS011;67151;52.544;6.034;2023-07-02T00:40:53;2.5;;;1.4;;
77953;SDS011;67151;52.544;6.034;2023-07-02T00:41:08;2.6;;;1.3;;
77953;SDS011;67151;52.544;6.034;2023-07-02T00:41:23;2.9;;;1.6;;
77953;SDS011;67151;52.544;6.034;2023-07-02T00:41:38;3.1;;;1.6;;
77953;SDS011;67151;52.544;6.034;2023-07-02T00:41:53;2.6;;;1.3;;
77953;SDS011;67151;52.544;6.034;2023-07-02T00:42:08;2.5;;;1.4;;
77953;SDS011;67151;52.544;6.034;2023-07-02T00:42:23;3.1;;;1.5;;
77953;SDS011;67151;52.544;6.034;2023-07-02T00:42:38;2.8;;;1.4;;
77953;SDS011;67151;52.544;6.034;2023-07-02T00:42:53;2.5;;;1.3;;
77953;SDS011;67151;52.544;6.034;2023-07-02T00:43:08;2.9;;;1.4;;
77953;SDS011;67151;52.544;6.034;2023-07-02T00:43:23;2.5;;;1.3;;
77953;SDS011;67151;52.544;6.034;2023-07-02T00:43:38;2.1;;;1.3;;
77953;SDS011;67151;52.544;6.034;2023-07-02T00:43:53;2.4;;;1.4;;
77953;SDS011;67151;52.544;6.034;2023-07-02T00:44:08;2.4;;;1.3;;
77953;SDS011;67151;52.544;6.034;2023-07-02T00:44:23;2.2;;;1.3;;
77953;SDS011;67151;52.544;6.034;2023-07-02T00:44:38;1.9;;;1.1;;
77953;SDS011;67151;52.544;6.034;2023-07-02T00:44:53;1.9;;;1.2;;
77953;SDS011;67151;52.544;6.034;2023-07-02T00:45:08;2.4;;;1.3;;
77953;SDS011;67151;52.544;6.034;2023-07-02T00:45:23;2.8;;;1.4;;
77953;SDS011;67151;52.544;6.034;2023-07-02T00:45:38;2.9;;;1.3;;
77953;SDS011;67151;52.544;6.034;2023-07-02T00:45:53;2.5;;;1.4;;
77953;SDS011;67151;52.544;6.034;2023-07-02T00:46:08;2.5;;;1.5;;
77953;SDS011;67151;52.544;6.034;2023-07-02T00:46:23;2.6;;;1.5;;
77953;SDS011;67151;52.544;6.034;2023-07-02T00:46:38;2;;;1.3;;
77953;SDS011;67151;52.544;6.034;2023-07-02T00:46:53;2;;;1.3;;
77953;SDS011;67151;52.544;6.034;2023-07-02T00:47:08;2;;;1.3;;
77953;SDS011;67151;52.544;6.034;2023-07-02T00:47:23;2;;;1.3;;
77953;SDS011;67151;52.544;6.034;2023-07-02T00:47:38;2.1;;;1.3;;
77953;SDS011;67151;52.544;6.034;2023-07-02T00:47:53;2.1;;;1.4;;
77953;SDS011;67151;52.544;6.034;2023-07-02T00:48:08;2.8;;;1.5;;
77953;SDS011;67151;52.544;6.034;2023-07-02T00:48:23;2.7;;;1.4;;
77953;SDS011;67151;52.544;6.034;2023-07-02T00:48:38;2.7;;;1.4;;
77953;SDS011;67151;52.544;6.034;2023-07-02T00:48:53;2.7;;;1.3;;
77953;SDS011;67151;52.544;6.034;2023-07-02T00:49:08;2.9;;;1.2;;
77953;SDS011;67151;52.544;6.034;2023-07-02T00:49:23;3;;;1.2;;
77953;SDS011;67151;52.544;6.034;2023-07-02T00:49:39;2.2;;;1.2;;
77953;SDS011;67151;52.544;6.034;2023-07-02T00:49:53;2.3;;;1.4;;
77953;SDS011;67151;52.544;6.034;2023-07-02T00:50:08;2.3;;;1.3;;
77953;SDS011;67151;52.544;6.034;2023-07-02T00:50:23;2;;;1.2;;
77953;SDS011;67151;52.544;6.034;2023-07-02T00:50:38;2.2;;;1.3;;
77953;SDS011;67151;52.544;6.034;2023-07-02T00:50:53;2.5;;;1.3;;
77953;SDS011;67151;52.544;6.034;2023-07-02T00:51:08;2.5;;;1.3;;
77953;SDS011;67151;52.544;6.034;2023-07-02T00:51:24;2.2;;;1.3;;
77953;SDS011;67151;52.544;6.034;2023-07-02T00:51:38;2.4;;;1.4;;
77953;SDS011;67151;52.544;6.034;2023-07-02T00:51:53;2.8;;;1.4;;
77953;SDS011;67151;52.544;6.034;2023-07-02T00:52:08;2.6;;;1.4;;
77953;SDS011;67151;52.544;6.034;2023-07-02T00:52:23;2.2;;;1.4;;
77953;SDS011;67151;52.544;6.034;2023-07-02T00:52:38;2.4;;;1.2;;
77953;SDS011;67151;52.544;6.034;2023-07-02T00:52:53;2.3;;;1.2;;
77953;SDS011;67151;52.544;6.034;2023-07-02T00:53:08;2.1;;;1.3;;
77953;SDS011;67151;52.544;6.034;2023-07-02T00:53:23;2.8;;;1.3;;
77953;SDS011;67151;52.544;6.034;2023-07-02T00:53:38;3.2;;;1.6;;
77953;SDS011;67151;52.544;6.034;2023-07-02T00:53:54;2.8;;;1.7;;
77953;SDS011;67151;52.544;6.034;2023-07-02T00:54:08;2.2;;;1.4;;
77953;SDS011;67151;52.544;6.034;2023-07-02T00:54:23;2.3;;;1.3;;
77953;SDS011;67151;52.544;6.034;2023-07-02T00:54:38;2.9;;;1.4;;
77953;SDS011;67151;52.544;6.034;2023-07-02T00:54:53;2.7;;;1.4;;
77953;SDS011;67151;52.544;6.034;2023-07-02T00:55:08;2.6;;;1.5;;
77953;SDS011;67151;52.544;6.034;2023-07-02T00:55:23;3.4;;;1.4;;
77953;SDS011;67151;52.544;6.034;2023-07-02T00:55:38;3;;;1.2;;
77953;SDS011;67151;52.544;6.034;2023-07-02T00:55:53;2.5;;;1.5;;
77953;SDS011;67151;52.544;6.034;2023-07-02T00:56:08;2.8;;;1.5;;
77953;SDS011;67151;52.544;6.034;2023-07-02T00:56:23;2.2;;;1.2;;
77953;SDS011;67151;52.544;6.034;2023-07-02T00:56:38;1.6;;;1.1;;
77953;SDS011;67151;52.544;6.034;2023-07-02T00:56:53;1.7;;;1.2;;
77953;SDS011;67151;52.544;6.034;2023-07-02T00:57:08;2;;;1.3;;
77953;SDS011;67151;52.544;6.034;2023-07-02T00:57:23;2.4;;;1.5;;
77953;SDS011;67151;52.544;6.034;2023-07-02T00:57:38;2.8;;;1.4;;
77953;SDS011;67151;52.544;6.034;2023-07-02T00:57:53;3;;;1.5;;
77953;SDS011;67151;52.544;6.034;2023-07-02T00:58:08;2.7;;;1.3;;
77953;SDS011;67151;52.544;6.034;2023-07-02T00:58:23;2.1;;;1.1;;
77953;SDS011;67151;52.544;6.034;2023-07-02T00:58:38;2.1;;;1.3;;
77953;SDS011;67151;52.544;6.034;2023-07-02T00:58:53;2.3;;;1.2;;
77953;SDS011;67151;52.544;6.034;2023-07-02T00:59:08;2.3;;;1.3;;
77953;SDS011;67151;52.544;6.034;2023-07-02T00:59:23;2;;;1.3;;
77953;SDS011;67151;52.544;6.034;2023-07-02T00:59:38;1.9;;;1.3;;
77953;SDS011;67151;52.544;6.034;2023-07-02T00:59:53;2.2;;;1.2;;
77953;SDS011;67151;52.544;6.034;2023-07-02T01:00:08;2.1;;;1.2;;
77953;SDS011;67151;52.544;6.034;2023-07-02T01:00:23;2.3;;;1.4;;
77953;SDS011;67151;52.544;6.034;2023-07-02T01:00:38;2.3;;;1.4;;
77953;SDS011;67151;52.544;6.034;2023-07-02T01:00:53;2.1;;;1.4;;
77953;SDS011;67151;52.544;6.034;2023-07-02T01:01:08;2.1;;;1.2;;
77953;SDS011;67151;52.544;6.034;2023-07-02T01:01:24;2.4;;;1.4;;
77953;SDS011;67151;52.544;6.034;2023-07-02T01:01:38;2.5;;;1.4;;
77953;SDS011;67151;52.544;6.034;2023-07-02T01:01:53;2.5;;;1.4;;
77953;SDS011;67151;52.544;6.034;2023-07-02T01:02:08;2.6;;;1.4;;
77953;SDS011;67151;52.544;6.034;2023-07-02T01:02:23;2.2;;;1.3;;
77953;SDS011;67151;52.544;6.034;2023-07-02T01:02:38;2;;;1.2;;
77953;SDS011;67151;52.544;6.034;2023-07-02T01:02:53;2;;;1.2;;
77953;SDS011;67151;52.544;6.034;2023-07-02T01:03:08;1.9;;;1.2;;
77953;SDS011;67151;52.544;6.034;2023-07-02T01:03:23;2;;;1.3;;
77953;SDS011;67151;52.544;6.034;2023-07-02T01:03:38;2.2;;;1.4;;
77953;SDS011;67151;52.544;6.034;2023-07-02T01:03:53;2;;;1.3;;
77953;SDS011;67151;52.544;6.034;2023-07-02T01:04:08;2.2;;;1.4;;
77953;SDS011;67151;52.544;6.034;2023-07-02T01:04:23;3.3;;;2.2;;
77953;SDS011;67151;52.544;6.034;2023-07-02T01:04:38;4.1;;;2.4;;
77953;SDS011;67151;52.544;6.034;2023-07-02T01:04:53;4.1;;;2.1;;
77953;SDS011;67151;52.544;6.034;2023-07-02T01:05:08;3.3;;;1.9;;
77953;SDS011;67151;52.544;6.034;2023-07-02T01:05:23;2.9;;;1.8;;
77953;SDS011;67151;52.544;6.034;2023-07-02T01:05:38;3;;;1.5;;
77953;SDS011;67151;52.544;6.034;2023-07-02T01:05:53;2.6;;;1.3;;
77953;SDS011;67151;52.544;6.034;2023-07-02T01:06:08;2.2;;;1.2;;
77953;SDS011;67151;52.544;6.034;2023-07-02T01:06:23;2;;;1.2;;
77953;SDS011;67151;52.544;6.034;2023-07-02T01:06:38;2;;;1.3;;
77953;SDS011;67151;52.544;6.034;2023-07-02T01:06:53;2;;;1.3;;
77953;SDS011;67151;52.544;6.034;2023-07-02T01:07:08;2.3;;;1.2;;
77953;SDS011;67151;52.544;6.034;2023-07-02T01:07:23;2.1;;;1.3;;
77953;SDS011;67151;52.544;6.034;2023-07-02T01:07:38;2.2;;;1.2;;
77953;SDS011;67151;52.544;6.034;2023-07-02T01:07:53;2.2;;;1.2;;
77953;SDS011;67151;52.544;6.034;2023-07-02T01:08:08;2.1;;;1.3;;
77953;SDS011;67151;52.544;6.034;2023-07-02T01:08:23;2.2;;;1.4;;
77953;SDS011;67151;52.544;6.034;2023-07-02T01:08:38;2;;;1.3;;
77953;SDS011;67151;52.544;6.034;2023-07-02T01:08:54;2;;;1.2;;
77953;SDS011;67151;52.544;6.034;2023-07-02T01:09:08;2.2;;;1.2;;
77953;SDS011;67151;52.544;6.034;2023-07-02T01:09:23;2.4;;;1.2;;
77953;SDS011;67151;52.544;6.034;2023-07-02T01:09:38;2.2;;;1.3;;
77953;SDS011;67151;52.544;6.034;2023-07-02T01:09:53;2.2;;;1.3;;
77953;SDS011;67151;52.544;6.034;2023-07-02T01:10:08;2.3;;;1.4;;
77953;SDS011;67151;52.544;6.034;2023-07-02T01:10:23;1.9;;;1.3;;
77953;SDS011;67151;52.544;6.034;2023-07-02T01:10:38;1.9;;;1.1;;
77953;SDS011;67151;52.544;6.034;2023-07-02T01:10:53;2.2;;;1.3;;
77953;SDS011;67151;52.544;6.034;2023-07-02T01:11:08;2.4;;;1.4;;
77953;SDS011;67151;52.544;6.034;2023-07-02T01:11:24;2.4;;;1.3;;
77953;SDS011;67151;52.544;6.034;2023-07-02T01:11:39;2.2;;;1.3;;
77953;SDS011;67151;52.544;6.034;2023-07-02T01:11:54;2.4;;;1.4;;
77953;SDS011;67151;52.544;6.034;2023-07-02T01:12:08;2.3;;;1.2;;
77953;SDS011;67151;52.544;6.034;2023-07-02T01:12:23;2.4;;;1.2;;
77953;SDS011;67151;52.544;6.034;2023-07-02T01:12:38;2.7;;;1.5;;
77953;SDS011;67151;52.544;6.034;2023-07-02T01:12:53;2.4;;;1.5;;
77953;SDS011;67151;52.544;6.034;2023-07-02T01:13:09;2.3;;;1.4;;
77953;SDS011;67151;52.544;6.034;2023-07-02T01:13:23;2.8;;;1.5;;
77953;SDS011;67151;52.544;6.034;2023-07-02T01:13:38;2.5;;;1.5;;
77953;SDS011;67151;52.544;6.034;2023-07-02T01:13:54;2.2;;;1.3;;
77953;SDS011;67151;52.544;6.034;2023-07-02T01:14:08;2.2;;;1.3;;
77953;SDS011;67151;52.544;6.034;2023-07-02T01:14:25;2.3;;;1.4;;
77953;SDS011;67151;52.544;6.034;2023-07-02T01:14:38;2.6;;;1.4;;
77953;SDS011;67151;52.544;6.034;2023-07-02T01:14:53;2.6;;;1.5;;
77953;SDS011;67151;52.544;6.034;2023-07-02T01:15:08;2.5;;;1.5;;
77953;SDS011;67151;52.544;6.034;2023-07-02T01:15:23;2.1;;;1.5;;
77953;SDS011;67151;52.544;6.034;2023-07-02T01:15:38;1.9;;;1.4;;
77953;SDS011;67151;52.544;6.034;2023-07-02T01:15:53;2.3;;;1.4;;
77953;SDS011;67151;52.544;6.034;2023-07-02T01:16:08;2.5;;;1.5;;
77953;SDS011;67151;52.544;6.034;2023-07-02T01:16:23;2.5;;;1.5;;
77953;SDS011;67151;52.544;6.034;2023-07-02T01:16:38;2.7;;;1.4;;
77953;SDS011;67151;52.544;6.034;2023-07-02T01:16:53;2.9;;;1.4;;
77953;SDS011;67151;52.544;6.034;2023-07-02T01:17:08;2.6;;;1.4;;
77953;SDS011;67151;52.544;6.034;2023-07-02T01:17:23;2.2;;;1.3;;
77953;SDS011;67151;52.544;6.034;2023-07-02T01:17:38;2.2;;;1.3;;
77953;SDS011;67151;52.544;6.034;2023-07-02T01:17:53;2.2;;;1.4;;
77953;SDS011;67151;52.544;6.034;2023-07-02T01:18:08;2.2;;;1.4;;
77953;SDS011;67151;52.544;6.034;2023-07-02T01:18:23;2.1;;;1.3;;
77953;SDS011;67151;52.544;6.034;2023-07-02T01:18:38;2.3;;;1.3;;
77953;SDS011;67151;52.544;6.034;2023-07-02T01:18:53;2.7;;;1.4;;
77953;SDS011;67151;52.544;6.034;2023-07-02T01:19:10;2.6;;;1.5;;
77953;SDS011;67151;52.544;6.034;2023-07-02T01:19:30;2.3;;;1.4;;
77953;SDS011;67151;52.544;6.034;2023-07-02T01:19:40;2.5;;;1.4;;
77953;SDS011;67151;52.544;6.034;2023-07-02T01:19:54;2.1;;;1.4;;
77953;SDS011;67151;52.544;6.034;2023-07-02T01:20:08;1.9;;;1.3;;
77953;SDS011;67151;52.544;6.034;2023-07-02T01:20:23;2.4;;;1.4;;
77953;SDS011;67151;52.544;6.034;2023-07-02T01:20:38;2.6;;;1.5;;
77953;SDS011;67151;52.544;6.034;2023-07-02T01:20:53;2.3;;;1.4;;
77953;SDS011;67151;52.544;6.034;2023-07-02T01:21:08;2.4;;;1.6;;
77953;SDS011;67151;52.544;6.034;2023-07-02T01:21:23;2.6;;;1.6;;
77953;SDS011;67151;52.544;6.034;2023-07-02T01:21:38;2.3;;;1.4;;
77953;SDS011;67151;52.544;6.034;2023-07-02T01:21:53;2.3;;;1.4;;
77953;SDS011;67151;52.544;6.034;2023-07-02T01:22:08;2.6;;;1.5;;
77953;SDS011;67151;52.544;6.034;2023-07-02T01:22:23;2.4;;;1.4;;
77953;SDS011;67151;52.544;6.034;2023-07-02T01:22:38;2;;;1.3;;
77953;SDS011;67151;52.544;6.034;2023-07-02T01:22:53;1.8;;;1.3;;
77953;SDS011;67151;52.544;6.034;2023-07-02T01:23:08;1.8;;;1.3;;
77953;SDS011;67151;52.544;6.034;2023-07-02T01:23:23;2.4;;;1.5;;
77953;SDS011;67151;52.544;6.034;2023-07-02T01:23:38;2.5;;;1.6;;
77953;SDS011;67151;52.544;6.034;2023-07-02T01:23:53;2.3;;;1.3;;
77953;SDS011;67151;52.544;6.034;2023-07-02T01:24:08;2.2;;;1.3;;
77953;SDS011;67151;52.544;6.034;2023-07-02T01:24:23;2.5;;;1.3;;
77953;SDS011;67151;52.544;6.034;2023-07-02T01:24:38;2.7;;;1.4;;
77953;SDS011;67151;52.544;6.034;2023-07-02T01:24:53;2.7;;;1.5;;
77953;SDS011;67151;52.544;6.034;2023-07-02T01:25:08;2.4;;;1.3;;
77953;SDS011;67151;52.544;6.034;2023-07-02T01:25:23;2;;;1.4;;
77953;SDS011;67151;52.544;6.034;2023-07-02T01:25:38;2.6;;;1.6;;
77953;SDS011;67151;52.544;6.034;2023-07-02T01:25:53;2.8;;;1.5;;
77953;SDS011;67151;52.544;6.034;2023-07-02T01:26:08;2.4;;;1.4;;
77953;SDS011;67151;52.544;6.034;2023-07-02T01:26:23;2.3;;;1.4;;
77953;SDS011;67151;52.544;6.034;2023-07-02T01:26:38;2.4;;;1.5;;
77953;SDS011;67151;52.544;6.034;2023-07-02T01:26:53;2.1;;;1.5;;
77953;SDS011;67151;52.544;6.034;2023-07-02T01:27:08;2.6;;;1.5;;
77953;SDS011;67151;52.544;6.034;2023-07-02T01:27:23;2.9;;;1.4;;
77953;SDS011;67151;52.544;6.034;2023-07-02T01:27:38;2.6;;;1.4;;
77953;SDS011;67151;52.544;6.034;2023-07-02T01:27:53;2.6;;;1.5;;
77953;SDS011;67151;52.544;6.034;2023-07-02T01:28:08;2.5;;;1.5;;
77953;SDS011;67151;52.544;6.034;2023-07-02T01:28:23;3.5;;;1.6;;
77953;SDS011;67151;52.544;6.034;2023-07-02T01:28:38;3.3;;;1.5;;
77953;SDS011;67151;52.544;6.034;2023-07-02T01:28:53;2.6;;;1.4;;
77953;SDS011;67151;52.544;6.034;2023-07-02T01:29:15;2.5;;;1.4;;
77953;SDS011;67151;52.544;6.034;2023-07-02T01:29:23;2.6;;;1.6;;
77953;SDS011;67151;52.544;6.034;2023-07-02T01:29:38;2.9;;;1.6;;
77953;SDS011;67151;52.544;6.034;2023-07-02T01:29:53;2.6;;;1.4;;
77953;SDS011;67151;52.544;6.034;2023-07-02T01:30:08;2.4;;;1.4;;
77953;SDS011;67151;52.544;6.034;2023-07-02T01:30:23;2.1;;;1.2;;
77953;SDS011;67151;52.544;6.034;2023-07-02T01:30:38;2.4;;;1.4;;
77953;SDS011;67151;52.544;6.034;2023-07-02T01:30:53;2.5;;;1.5;;
77953;SDS011;67151;52.544;6.034;2023-07-02T01:31:08;2.1;;;1.3;;
77953;SDS011;67151;52.544;6.034;2023-07-02T01:31:23;2.7;;;1.5;;
77953;SDS011;67151;52.544;6.034;2023-07-02T01:31:38;2.8;;;1.5;;
77953;SDS011;67151;52.544;6.034;2023-07-02T01:31:53;2.2;;;1.3;;
77953;SDS011;67151;52.544;6.034;2023-07-02T01:32:08;2.6;;;1.3;;
77953;SDS011;67151;52.544;6.034;2023-07-02T01:32:23;2.9;;;1.3;;
77953;SDS011;67151;52.544;6.034;2023-07-02T01:32:38;2.7;;;1.6;;
77953;SDS011;67151;52.544;6.034;2023-07-02T01:32:53;2.5;;;1.5;;
77953;SDS011;67151;52.544;6.034;2023-07-02T01:33:08;2.2;;;1.3;;
77953;SDS011;67151;52.544;6.034;2023-07-02T01:33:23;2.2;;;1.4;;
77953;SDS011;67151;52.544;6.034;2023-07-02T01:33:38;2.3;;;1.5;;